AirNav   Duncan Aviation - Near you to keep you flying
 
 826 users online  

1T8 Bulverde Airpark
San Antonio, Texas, USA

GOING TO SAN ANTONIO?


FAA INFORMATION EFFECTIVE 11 AUGUST 2022

Location

FAA Identifier: 1T8
Lat/Long: 29-44-20.8000N 098-27-04.0610W
29-44.346667N 098-27.067683W
29.7391111,-98.4511281
(estimated)
Elevation: 1080 ft. / 329 m (estimated)
Variation: 07E (1985)
From city: 16 miles N of SAN ANTONIO, TX
Time zone: UTC -5 (UTC -6 during Standard Time)
Zip code: 78163

Airport Operations

Airport use: Open to the public
Control tower: no
ARTCC: HOUSTON CENTER
FSS: SAN ANGELO FLIGHT SERVICE STATION
NOTAMs facility: SJT (NOTAM-D service available)
Attendance: 0900-1700
Wind indicator: yes
Segmented circle: yes
Lights: ACTVT LIRL RWY 16/34 - CTAF.
Beacon: white-green (lighted land airport)
DUSK-2200.
Landing fee: yes, LDG FEE APPLIES, CTC AMGR FOR INFO.

Airport Communications

CTAF/UNICOM: 122.8
WX ASOS at SAT (12 nm S): PHONE 210-805-5583
WX AWOS-3 at 5C1 (13 nm W): 118.725 (830-755-9099)

Nearby radio navigation aids

VOR radial/distance  VOR name  Freq  Var
SATr357/5.7SAN ANTONIO VORTAC116.8008E
RNDr322/15.8RANDOLPH VORTAC112.3005E
SSFr350/(28.8)STINSON VOR108.4009E
STVr147/31.0STONEWALL VORTAC113.8008E

 
NDB name  Hdg/Dist  Freq  Var  ID
ALAMO034/10.036804EAN .- -.

Airport Services

Fuel available: 100LL
100LL:FUEL AVBL 24 HRS SELF SVC WITH MAJOR CREDIT CARD
Parking: hangars and tiedowns
Airframe service: MAJOR
Powerplant service: MAJOR

Runway Information

Runway 16/34

Dimensions: 2890 x 40 ft. / 881 x 12 m
Surface: asphalt, in good condition
Runway edge lights: non-standard
NSTD LIRL; ONLY CNTR 2600 FT LGTD; RWY 16 DSPLCD THR HAS SINGLE GREEN LGT EACH SIDE. RWY 34 HAS NO DSPLCD THR LGTS.
Runway edge markings: MKD WITH 20 FT HIGH NRS; NO CNTRLN STRIPES. NRS NOT AT DSPLCD THR; NO DSPLCD THR MARKINGS.
RUNWAY 16  RUNWAY 34
Traffic pattern: rightleft
Displaced threshold: 490 ft.200 ft.
Markings: NSTD, in fair conditionNSTD, in fair condition
Obstructions: 36 ft. pline, marked and lighted, 200 ft. from runway, 125 ft. right of centerline
RWY 16 +6 FT FENCE 100 FT FM THR ON CNTRLN; +10 FT ROAD 110 FT FM THR ACRS CNTRLN; +25-40 FT TREES 120 FT FM THR 75-125 FT L OF CNTRLN; +35 FT PWR POLES 0 FT FM THR 108 FT L OF CNTRLN.
27 ft. trees, 255 ft. from runway, 102 ft. right of centerline, 2:1 slope to clear
+36 FT TREES AT THR 120 FT R.

Airport Ownership and Management from official FAA records

Ownership: Privately-owned
Owner: MARKLINE PROPERTIES INC
P.O. BOX 130
BULVERDE, TX 78163
Phone 210-240-1365
Manager: DANA ANDERSON
29890 BULVERDE LN #27
BULVERDE, TX 78163
Phone 210-275-4970
ALSO 830-438-4359 OR 210-240-1365.

Airport Operational Statistics

Aircraft based on the field: 84
Single engine airplanes: 76
Multi engine airplanes: 4
Helicopters: 4
    
Aircraft operations: avg 66/day *
67% local general aviation
33% transient general aviation
* for 12-month period ending 14 December 2016

Additional Remarks

NOISE ABATEMENT PROCS IN EFCT CTC AMGR 830-438-4359 OR 210-240-1365.
NO TOUCH & GO, STOP & GO, OR LOW APCHS.
DEER ON OR IN INVOF ARPT.
ALL TFC RIGHT HAND RWY 16.
FOR CD CTC SAN ANTONIO APCH AT 210-805-5516.
USE EXTREME CTN FOR HIGH PER MIL ACFT FROM RANDOLPH AFB AT OR ABV 3000 FT MSL MON-FRI 0800-2200 AND WHEN TWR HRS EXTD BY NOTAM, OCNL SAT AND SUN.
HEL EXPERTS ADJ CTC AT 210-930-0125 OR 210-501-3111.

Instrument Procedures

There are no published instrument procedures at 1T8.

Some nearby airports with instrument procedures:

KSAT - San Antonio International Airport (12 nm S)
5C1 - Boerne Stage Field Airport (13 nm W)
KRND - Randolph Air Force Base (16 nm SE)
KBAZ - New Braunfels National Airport (21 nm E)
KSKF - Kelly Field Airport (22 nm S)
 
Loc | Ops | Rwys | IFR | FBO | Links
Com | Nav | Svcs | Stats | Notes
Area around 1T8 (Bulverde Airpark)
 
Road maps at: MapQuest Bing Google
 
Aerial photo
WARNING: Photo may not be current or correct
Aerial photo of 1T8 (Bulverde Airpark)
Photo © Copyright 2004, by Michael Verber

Do you have a better or more recent aerial photo of Bulverde Airpark that you would like to share? If so, please send us your photo.

 
Sectional chart

 
Airport distance calculator
Flying to Bulverde Airpark? Find the distance to fly.

From to 1T8

Sunrise and sunset
Times for 11-Aug-2022
 Local
(UTC-5)
 Zulu
(UTC)
Morning civil twilight06:3511:35
Sunrise07:0012:00
Sunset20:1801:18
Evening civil twilight20:4301:43

Current date and time
Zulu (UTC)  12-Aug-2022 04:34:21
Local (UTC-5)  11-Aug-2022 23:34:21
 
METAR
KSAT 
12nm S 
120351Z 16006KT 10SM BKN110 BKN250 27/22 A3002 RMK AO2 SLP146 T02670222 $
K5C1 
13nm W 
120415Z AUTO 18003KT 10SM SCT120 23/23 A3005 RMK AO1
KRND 
16nm SE 
120356Z AUTO 23005KT 10SM SCT120 26/23 A2998 RMK AO2 SLP143 T02580225
KBAZ 
21nm E 
120351Z AUTO 21005KT 10SM FEW070 26/22 A2999 RMK AO2 SLP145 T02610217
KSKF 
23nm S 
120356Z AUTO 12005KT 10SM BKN110 OVC140 27/21 A2998 RMK AO2 SLP144 T02660213 $
KSSF 
24nm S 
120353Z AUTO 00000KT 10SM FEW120 26/05 A2999 RMK AO2 SLP142 T02560050 $
TAF
KSAT 
12nm S 
112122Z 1121/1224 08006KT P6SM VCTS BKN050CB TEMPO 1121/1123 VRB30KT 6SM -TSRA BKN050CB FM120200 16008KT P6SM SCT070 FM121800 08008KT P6SM VCSH SCT050 PROB30 1218/1224 4SM TSRA BKN050CB
KRND 
16nm SE 
111533Z 1116/1222 11009KT 9999 FEW050 SCT150 BKN250 QNH2996INS BECMG 1118/1119 11009KT 9999 VCSH SCT050 SCT150 BKN250 QNH2989INS TEMPO 1120/1202 VRB20G30KT 9000 -SHRA VCTS FEW040CB BKN050 BKN120 BKN250 BECMG 1201/1202 14009KT 9999 VCSH BKN050 BKN120 BKN250 QNH2993INS BECMG 1207/1208 VRB06KT 9999 NSW SCT012 SCT050 BKN120 QNH2995INS BECMG 1217/1218 06009KT 9999 VCTS BKN050CB BKN120 BKN250 QNH2989INS TX36/1120Z TN24/1205Z LAST NO AMDS AFT 1200 NEXT 1210
NOTAMs
Click for the latest NOTAMs
NOTAMs are issued by the DoD/FAA and will open in a separate window not controlled by AirNav.

 

 
 

FBO, Fuel Providers, and Aircraft Ground Support

  
 Business Name 
 
 Contact 
 
 Services / Description 
 
Fuel Prices
 
Comments
  
 Anderson Aviation
830-438-4359
[web site]
[email]
Airport management, Aviation fuel, Flight training, Aircraft rental, Pilot supplies

More info about Anderson Aviation
EPIC
100LL
SS $7.20 
 Updated 04-Aug-2022
 
   write
SS=Self service
Update Fuel Prices
 

Would you like to see your business listed on this page?

 If your business provides an interesting product or service to pilots, flight crews, aircraft, or users of the Bulverde Airpark, you should consider listing it here.  To start the listing process, click on the button below
 
Add a business
 

Other Pages about Bulverde Airpark

Update a link
 
Copyright © AirNav, LLC. All rights reserved. Privacy Policy  Contact